createdAt,value
2023-02-11T00:00:42.587Z,81.48
2023-02-11T00:03:09.747Z,81.43
2023-02-11T00:05:36.812Z,81.51
2023-02-11T00:08:03.520Z,81.76
2023-02-11T00:10:30.232Z,81.72
2023-02-11T00:12:56.863Z,81.69
2023-02-11T00:15:23.436Z,81.55
2023-02-11T00:17:50.023Z,81.71
2023-02-11T00:20:16.661Z,81.58
2023-02-11T00:22:43.638Z,81.42
2023-02-11T00:25:10.253Z,81.66
2023-02-11T00:27:37.690Z,81.61
2023-02-11T00:30:05.306Z,81.72
2023-02-11T00:32:32.211Z,81.70
2023-02-11T00:34:58.807Z,81.70
2023-02-11T00:37:25.633Z,81.78
2023-02-11T00:39:52.488Z,81.79
2023-02-11T00:42:19.048Z,81.62
2023-02-11T00:44:45.702Z,81.60
2023-02-11T00:47:12.368Z,81.59
2023-02-11T00:49:40.355Z,81.90
2023-02-11T00:52:07.280Z,81.67
2023-02-11T00:54:33.894Z,81.59
2023-02-11T00:57:00.533Z,81.51
2023-02-11T00:59:27.336Z,81.47
2023-02-11T01:01:53.937Z,81.71
2023-02-11T01:04:20.457Z,81.70
2023-02-11T01:06:47.122Z,81.76
2023-02-11T01:09:13.754Z,81.71
2023-02-11T01:11:40.358Z,81.79
2023-02-11T01:14:06.908Z,81.81
2023-02-11T01:16:33.501Z,81.67
2023-02-11T01:19:00.215Z,81.72
2023-02-11T01:21:26.925Z,81.87
2023-02-11T01:23:53.424Z,82.06
2023-02-11T01:26:20.101Z,82.09
2023-02-11T01:28:46.763Z,81.95
2023-02-11T01:31:13.899Z,82.17
2023-02-11T01:33:40.984Z,82.29
2023-02-11T01:36:08.421Z,82.43
2023-02-11T01:38:35.978Z,82.26
2023-02-11T01:41:06.157Z,82.30
2023-02-11T01:43:37.104Z,82.21
2023-02-11T01:46:36.682Z,82.19
2023-02-11T01:49:06.511Z,82.30
2023-02-11T01:51:38.702Z,82.59
2023-02-11T01:54:27.337Z,82.70
2023-02-11T01:57:15.535Z,83.06
2023-02-11T02:00:13.160Z,82.78
2023-02-11T02:03:00.698Z,82.98
2023-02-11T02:05:37.831Z,83.10
2023-02-11T02:08:13.828Z,82.98
2023-02-11T02:10:44.942Z,82.75
2023-02-11T02:13:11.852Z,82.89
2023-02-11T02:15:41.536Z,82.86
2023-02-11T02:18:22.861Z,82.91
2023-02-11T02:21:27.634Z,82.81
2023-02-11T02:24:18.856Z,82.81
2023-02-11T02:26:45.354Z,82.89
2023-02-11T02:29:27.153Z,83.04
2023-02-11T02:32:30.866Z,83.00
2023-02-11T02:35:06.897Z,83.03
2023-02-11T02:38:08.188Z,82.89
2023-02-11T02:40:40.998Z,83.16
2023-02-11T02:43:09.833Z,83.23
2023-02-11T02:45:36.353Z,83.13
2023-02-11T02:48:03.144Z,83.23
2023-02-11T02:50:33.943Z,83.48
2023-02-11T02:53:26.693Z,83.61
2023-02-11T02:56:37.878Z,83.66
2023-02-11T02:59:10.766Z,83.43
2023-02-11T03:01:43.625Z,83.77
2023-02-11T03:04:10.171Z,83.69
2023-02-11T03:06:47.038Z,83.71
2023-02-11T03:09:24.138Z,84.08
2023-02-11T03:11:50.750Z,84.05
2023-02-11T03:14:19.266Z,84.30
2023-02-11T03:16:48.376Z,84.04
2023-02-11T03:19:26.744Z,84.26
2023-02-11T03:21:54.832Z,84.19
2023-02-11T03:24:30.635Z,84.52
2023-02-11T03:27:01.493Z,84.46
2023-02-11T03:29:37.480Z,84.44
2023-02-11T03:32:16.009Z,84.34
2023-02-11T03:34:59.082Z,84.32
2023-02-11T03:37:50.824Z,84.78
2023-02-11T03:40:26.862Z,84.81
2023-02-11T03:42:59.611Z,85.07
2023-02-11T03:45:27.724Z,85.17
2023-02-11T03:48:01.517Z,85.09
2023-02-11T03:50:32.474Z,85.24
2023-02-11T03:53:01.967Z,85.37
2023-02-11T03:55:29.907Z,85.18
2023-02-11T03:57:56.837Z,85.40
2023-02-11T04:00:33.631Z,85.76
2023-02-11T04:03:00.418Z,85.45
2023-02-11T04:05:27.205Z,85.88
2023-02-11T04:07:53.823Z,86.01
2023-02-11T04:10:20.556Z,85.91
2023-02-11T04:12:47.132Z,86.35
2023-02-11T04:15:13.652Z,86.48
2023-02-11T04:17:41.343Z,86.31
2023-02-11T04:20:08.761Z,86.30
2023-02-11T04:22:36.159Z,86.62
2023-02-11T04:25:03.946Z,86.64
2023-02-11T04:27:30.587Z,86.64
2023-02-11T04:29:57.858Z,86.80
2023-02-11T04:32:24.409Z,86.98
2023-02-11T04:34:51.850Z,87.03
2023-02-11T04:37:18.516Z,87.24
2023-02-11T04:39:45.041Z,87.44
2023-02-11T04:42:12.294Z,87.77
2023-02-11T04:44:38.928Z,88.02
2023-02-11T04:47:05.519Z,88.14
2023-02-11T04:49:32.173Z,88.04
2023-02-11T04:51:58.742Z,88.91
2023-02-11T04:54:25.393Z,89.16
2023-02-11T04:56:51.979Z,89.17
2023-02-11T04:59:18.762Z,90.15
2023-02-11T05:01:45.286Z,90.44
2023-02-11T05:04:11.934Z,91.12
2023-02-11T05:06:39.693Z,91.74
2023-02-11T05:09:06.636Z,91.61
2023-02-11T05:11:33.328Z,91.71
2023-02-11T05:13:59.943Z,91.58
2023-02-11T05:16:26.456Z,92.02
2023-02-11T05:18:55.423Z,92.23
2023-02-11T05:21:22.452Z,92.53
2023-02-11T05:23:48.984Z,92.81
2023-02-11T05:26:16.247Z,93.29
2023-02-11T05:28:43.072Z,92.88
2023-02-11T05:31:10.557Z,93.07
2023-02-11T05:33:37.647Z,92.88
2023-02-11T05:36:07.477Z,93.14
2023-02-11T05:38:34.710Z,92.97
2023-02-11T05:41:01.424Z,92.99
2023-02-11T05:43:28.061Z,93.48
2023-02-11T05:45:54.837Z,93.67
2023-02-11T05:48:21.516Z,93.27
2023-02-11T05:50:48.118Z,93.73
2023-02-11T05:53:14.795Z,94.12
2023-02-11T05:55:41.647Z,94.32
2023-02-11T05:58:08.319Z,94.15
2023-02-11T06:00:35.594Z,94.29
2023-02-11T06:03:04.177Z,93.95
2023-02-11T06:05:31.319Z,94.84
2023-02-11T06:07:58.055Z,94.86
2023-02-11T06:10:24.618Z,94.95
2023-02-11T06:12:51.231Z,94.90
2023-02-11T06:15:18.022Z,95.03
2023-02-11T06:17:44.728Z,94.99
2023-02-11T06:20:11.518Z,94.80
2023-02-11T06:22:38.214Z,94.87
2023-02-11T06:25:05.507Z,95.14
2023-02-11T06:27:32.185Z,95.30
2023-02-11T06:29:58.773Z,95.28
2023-02-11T06:32:43.301Z,95.03
2023-02-11T06:35:12.347Z,95.48
2023-02-11T06:37:41.543Z,95.30
2023-02-11T06:40:09.561Z,95.32
2023-02-11T06:42:38.668Z,95.45
2023-02-11T06:45:06.171Z,95.32
2023-02-11T06:47:32.930Z,95.19
2023-02-11T06:49:59.729Z,95.24
2023-02-11T06:52:26.342Z,95.17
2023-02-11T06:54:52.869Z,94.85
2023-02-11T06:57:19.659Z,95.16
2023-02-11T06:59:46.994Z,94.87
2023-02-11T07:02:13.529Z,94.61
2023-02-11T07:04:40.092Z,94.82
2023-02-11T07:07:06.640Z,94.91
2023-02-11T07:09:33.235Z,94.50
2023-02-11T07:11:59.868Z,94.18
2023-02-11T07:14:26.444Z,94.07
2023-02-11T07:16:53.038Z,93.96
2023-02-11T07:19:20.006Z,94.57
2023-02-11T07:21:46.682Z,94.35
2023-02-11T07:24:13.193Z,94.35
2023-02-11T07:26:40.820Z,94.31
2023-02-11T07:29:07.386Z,94.23
2023-02-11T07:31:34.131Z,94.21
2023-02-11T07:34:01.807Z,93.76
2023-02-11T07:36:31.688Z,93.79
2023-02-11T07:38:58.713Z,94.01
2023-02-11T07:41:26.017Z,93.94
2023-02-11T07:43:52.750Z,93.91
2023-02-11T07:46:22.514Z,93.30
2023-02-11T07:48:49.405Z,93.41
2023-02-11T07:51:19.001Z,93.35
2023-02-11T07:53:46.524Z,93.67
2023-02-11T07:56:15.188Z,93.42
2023-02-11T07:58:43.038Z,93.34
2023-02-11T08:01:12.294Z,93.34
2023-02-11T08:03:39.859Z,93.88
2023-02-11T08:06:08.826Z,94.20
2023-02-11T08:08:35.479Z,93.89
2023-02-11T08:11:14.690Z,94.19
2023-02-11T08:13:42.188Z,94.13
2023-02-11T08:16:09.446Z,94.59
2023-02-11T08:18:36.432Z,94.40
2023-02-11T08:21:07.967Z,94.67
2023-02-11T08:23:37.306Z,95.09
2023-02-11T08:26:06.312Z,94.43
2023-02-11T08:28:36.620Z,94.58
2023-02-11T08:31:12.559Z,94.99
2023-02-11T08:33:40.964Z,95.26
2023-02-11T08:36:12.277Z,95.30
2023-02-11T08:38:39.250Z,94.86
2023-02-11T08:41:06.500Z,95.17
2023-02-11T08:43:33.674Z,95.14
2023-02-11T08:46:02.320Z,94.52
2023-02-11T08:48:29.886Z,94.76
2023-02-11T08:50:57.312Z,94.51
2023-02-11T08:53:24.305Z,94.27
2023-02-11T08:55:52.746Z,94.40
2023-02-11T08:58:20.521Z,94.46
2023-02-11T09:00:48.840Z,94.28
2023-02-11T09:03:16.153Z,93.94
2023-02-11T09:05:47.271Z,93.94
2023-02-11T09:08:14.692Z,93.23
2023-02-11T09:10:41.369Z,93.87
2023-02-11T09:13:08.442Z,93.87
2023-02-11T09:15:35.368Z,93.78
2023-02-11T09:18:02.454Z,93.67
2023-02-11T09:20:29.140Z,93.29
2023-02-11T09:22:58.292Z,93.21
2023-02-11T09:25:25.098Z,93.34
2023-02-11T09:27:53.636Z,93.08
2023-02-11T09:30:21.063Z,93.23
2023-02-11T09:32:47.781Z,92.95
2023-02-11T09:35:14.444Z,93.38
2023-02-11T09:37:41.646Z,93.43
2023-02-11T09:40:09.152Z,92.89
2023-02-11T09:43:01.766Z,93.37
2023-02-11T09:45:31.275Z,93.13
2023-02-11T09:48:27.340Z,93.55
2023-02-11T09:51:00.387Z,93.62
2023-02-11T09:53:29.562Z,93.46
2023-02-11T09:55:59.960Z,93.75
2023-02-11T09:58:35.075Z,93.79
2023-02-11T10:01:12.835Z,94.34
2023-02-11T10:03:57.722Z,93.84
2023-02-11T10:06:48.934Z,93.78
2023-02-11T10:09:46.492Z,93.91
2023-02-11T10:12:22.175Z,94.31
2023-02-11T10:15:31.396Z,94.44
2023-02-11T10:18:16.315Z,94.57
2023-02-11T10:21:14.968Z,94.83
2023-02-11T10:23:46.585Z,95.18
2023-02-11T10:26:17.194Z,94.99
2023-02-11T10:28:49.522Z,95.05
2023-02-11T10:31:18.926Z,95.26
2023-02-11T10:34:09.666Z,95.27
2023-02-11T10:36:39.852Z,95.52
2023-02-11T10:39:21.460Z,95.34
2023-02-11T10:41:53.745Z,95.36
2023-02-11T10:44:28.785Z,95.28
2023-02-11T10:46:57.260Z,95.31
2023-02-11T10:49:35.117Z,95.10
2023-02-11T10:52:24.595Z,95.34
2023-02-11T10:55:00.268Z,95.87
2023-02-11T10:57:32.861Z,96.41
2023-02-11T11:00:06.907Z,96.40
2023-02-11T11:02:38.662Z,96.55
2023-02-11T11:05:36.048Z,96.82
2023-02-11T11:08:06.985Z,96.88
2023-02-11T11:10:45.806Z,96.93
2023-02-11T11:13:35.427Z,96.53
2023-02-11T11:16:14.259Z,97.05
2023-02-11T11:18:43.782Z,96.94
2023-02-11T11:21:30.228Z,97.36
2023-02-11T11:24:02.067Z,96.90
2023-02-11T11:26:56.893Z,97.12
2023-02-11T11:29:30.368Z,96.97
2023-02-11T11:32:01.184Z,97.66
2023-02-11T11:34:37.131Z,96.35
2023-02-11T11:37:24.518Z,96.41
2023-02-11T11:40:02.318Z,96.78
2023-02-11T11:42:35.342Z,96.28
2023-02-11T11:45:04.504Z,95.73
2023-02-11T11:47:42.253Z,95.84
2023-02-11T11:50:34.052Z,95.70
2023-02-11T11:53:21.742Z,95.64
2023-02-11T11:56:00.852Z,94.96
2023-02-11T11:58:28.709Z,94.95
2023-02-11T12:01:01.497Z,95.01
2023-02-11T12:03:48.879Z,95.27
2023-02-11T12:06:44.012Z,95.46
2023-02-11T12:09:52.983Z,95.52
2023-02-11T12:12:36.846Z,95.49
2023-02-11T12:15:39.177Z,95.42
2023-02-11T12:18:05.696Z,95.03
2023-02-11T12:20:40.628Z,94.84
2023-02-11T12:23:27.402Z,94.82
2023-02-11T12:26:13.760Z,95.34
2023-02-11T12:29:03.369Z,95.08
2023-02-11T12:31:49.363Z,95.20
2023-02-11T12:34:40.794Z,95.77
2023-02-11T12:37:27.607Z,96.08
2023-02-11T12:40:18.298Z,95.96
2023-02-11T12:43:18.238Z,96.22
2023-02-11T12:46:05.100Z,96.14
2023-02-11T12:48:49.833Z,96.48
2023-02-11T12:51:35.809Z,96.90
2023-02-11T12:54:24.283Z,96.71
2023-02-11T12:57:21.159Z,96.73
2023-02-11T12:59:50.895Z,96.46
2023-02-11T13:02:27.086Z,96.60
2023-02-11T13:05:19.459Z,96.27
2023-02-11T13:07:47.516Z,96.58
2023-02-11T13:10:13.983Z,96.39
2023-02-11T13:13:05.089Z,96.38
2023-02-11T13:15:32.902Z,96.27
2023-02-11T13:18:21.670Z,96.24
2023-02-11T13:20:52.156Z,96.29
2023-02-11T13:23:21.965Z,96.85
2023-02-11T13:25:58.612Z,96.91
2023-02-11T13:29:05.146Z,96.60
2023-02-11T13:31:32.219Z,96.62
2023-02-11T13:33:58.896Z,96.89
2023-02-11T13:36:27.674Z,97.49
2023-02-11T13:39:05.226Z,97.16
2023-02-11T13:41:39.125Z,97.09
2023-02-11T13:44:26.630Z,97.27
2023-02-11T13:47:02.219Z,97.00
2023-02-11T13:49:36.607Z,97.30
2023-02-11T13:52:06.618Z,97.30
2023-02-11T13:54:39.390Z,97.01
2023-02-11T13:57:20.963Z,96.99
2023-02-11T13:59:49.120Z,96.94
2023-02-11T14:02:49.714Z,97.46
2023-02-11T14:05:51.202Z,97.62
2023-02-11T14:08:43.499Z,97.93
2023-02-11T14:11:41.576Z,98.16
2023-02-11T14:14:08.303Z,97.71
2023-02-11T14:16:38.498Z,97.77
2023-02-11T14:19:06.705Z,98.11
2023-02-11T14:21:37.096Z,98.10
2023-02-11T14:24:07.050Z,98.53
2023-02-11T14:26:57.918Z,98.15
2023-02-11T14:29:45.914Z,97.86
2023-02-11T14:32:49.124Z,97.99
2023-02-11T14:35:40.165Z,98.24
2023-02-11T14:38:40.519Z,98.92
2023-02-11T14:41:16.104Z,99.11
2023-02-11T14:43:46.870Z,98.44
2023-02-11T14:46:16.496Z,98.78
2023-02-11T14:48:50.213Z,98.25
2023-02-11T14:51:25.746Z,98.54
2023-02-11T14:53:57.834Z,98.38
2023-02-11T14:56:31.056Z,98.82
2023-02-11T14:58:58.807Z,98.43
2023-02-11T15:01:35.260Z,98.39
2023-02-11T15:04:05.358Z,98.48
2023-02-11T15:06:36.535Z,98.36
2023-02-11T15:09:18.916Z,98.67
2023-02-11T15:11:48.544Z,98.99
2023-02-11T15:14:23.853Z,98.58
2023-02-11T15:16:56.213Z,98.81
2023-02-11T15:19:36.475Z,98.57
2023-02-11T15:22:27.154Z,98.48
2023-02-11T15:25:09.696Z,99.11
2023-02-11T15:27:44.992Z,98.81
2023-02-11T15:30:23.794Z,98.72
2023-02-11T15:33:00.024Z,98.65
2023-02-11T15:35:29.821Z,99.11
2023-02-11T15:37:58.677Z,99.04
2023-02-11T15:40:32.450Z,98.82
2023-02-11T15:43:04.392Z,98.73
2023-02-11T15:45:35.338Z,98.95
2023-02-11T15:48:17.553Z,98.76
2023-02-11T15:50:52.228Z,98.72
2023-02-11T15:53:25.102Z,98.73
2023-02-11T15:55:59.438Z,98.47
2023-02-11T15:58:26.063Z,99.10
2023-02-11T16:00:59.706Z,98.96
2023-02-11T16:03:32.465Z,99.26
2023-02-11T16:06:35.840Z,99.20
2023-02-11T16:09:08.393Z,99.29
2023-02-11T16:11:53.674Z,99.51
2023-02-11T16:14:27.692Z,99.02
2023-02-11T16:17:09.784Z,99.03
2023-02-11T16:19:42.636Z,99.33
2023-02-11T16:22:15.526Z,99.29
2023-02-11T16:24:42.434Z,99.06
2023-02-11T16:27:34.007Z,99.19
2023-02-11T16:30:00.705Z,99.06
2023-02-11T16:32:30.019Z,98.96
2023-02-11T16:34:58.645Z,99.04
2023-02-11T16:37:25.750Z,98.97
2023-02-11T16:39:58.601Z,98.98
2023-02-11T16:42:25.328Z,99.17
2023-02-11T16:44:51.937Z,99.09
2023-02-11T16:47:25.759Z,99.03
2023-02-11T16:49:52.995Z,98.99
2023-02-11T16:52:21.604Z,98.85
2023-02-11T16:54:48.324Z,98.84
2023-02-11T16:57:28.177Z,98.86
2023-02-11T16:59:58.145Z,98.93
2023-02-11T17:02:28.188Z,99.10
2023-02-11T17:04:56.369Z,99.11
2023-02-11T17:07:23.022Z,99.00
2023-02-11T17:09:49.815Z,98.96
2023-02-11T17:12:16.373Z,99.22
2023-02-11T17:14:43.544Z,99.10
2023-02-11T17:17:11.384Z,99.06
2023-02-11T17:19:38.710Z,99.33
2023-02-11T17:22:05.958Z,99.35
2023-02-11T17:24:32.793Z,99.14
2023-02-11T17:26:59.462Z,98.71
2023-02-11T17:29:26.124Z,99.00
2023-02-11T17:31:53.370Z,98.89
2023-02-11T17:34:21.793Z,99.09
2023-02-11T17:36:48.940Z,99.07
2023-02-11T17:39:15.743Z,98.88
2023-02-11T17:41:42.334Z,99.07
2023-02-11T17:44:12.154Z,99.08
2023-02-11T17:46:38.753Z,99.23
2023-02-11T17:49:05.477Z,99.00
2023-02-11T17:51:36.873Z,98.89
2023-02-11T17:54:10.410Z,98.78
2023-02-11T17:56:38.436Z,99.02
2023-02-11T17:59:06.391Z,99.02
2023-02-11T18:01:34.020Z,98.94
2023-02-11T18:04:01.157Z,99.01
2023-02-11T18:06:29.051Z,98.79
2023-02-11T18:08:58.030Z,98.74
2023-02-11T18:11:27.963Z,98.99
2023-02-11T18:13:54.633Z,98.92
2023-02-11T18:16:23.400Z,99.10
2023-02-11T18:18:50.766Z,98.84
2023-02-11T18:21:20.293Z,98.79
2023-02-11T18:23:48.053Z,99.49
2023-02-11T18:26:16.673Z,99.19
2023-02-11T18:28:45.859Z,98.91
2023-02-11T18:31:14.082Z,98.78
2023-02-11T18:33:42.110Z,98.95
2023-02-11T18:36:11.978Z,98.80
2023-02-11T18:38:39.251Z,99.05
2023-02-11T18:41:07.403Z,98.91
2023-02-11T18:43:34.903Z,98.95
2023-02-11T18:46:02.954Z,99.18
2023-02-11T18:48:29.743Z,99.54
2023-02-11T18:50:56.286Z,99.51
2023-02-11T18:53:24.540Z,99.26
2023-02-11T18:55:53.258Z,99.08
2023-02-11T18:58:21.291Z,99.25
2023-02-11T19:00:48.804Z,99.60
2023-02-11T19:03:15.664Z,99.26
2023-02-11T19:05:44.712Z,98.96
2023-02-11T19:08:11.601Z,99.08
2023-02-11T19:10:46.170Z,99.17
2023-02-11T19:13:13.727Z,99.32
2023-02-11T19:15:42.287Z,99.19
2023-02-11T19:18:09.261Z,99.09
2023-02-11T19:20:35.818Z,99.27
2023-02-11T19:23:02.621Z,99.22
2023-02-11T19:25:29.202Z,99.47
2023-02-11T19:27:55.823Z,99.27
2023-02-11T19:30:22.545Z,98.88
2023-02-11T19:32:52.425Z,99.35
2023-02-11T19:35:21.819Z,99.24
2023-02-11T19:37:48.680Z,99.29
2023-02-11T19:40:19.150Z,99.38
2023-02-11T19:42:45.852Z,99.69
2023-02-11T19:45:12.697Z,99.35
2023-02-11T19:47:39.272Z,99.23
2023-02-11T19:50:06.534Z,99.34
2023-02-11T19:52:33.142Z,99.99
2023-02-11T19:55:00.702Z,99.81
2023-02-11T19:57:27.361Z,99.62
2023-02-11T19:59:54.989Z,99.81
2023-02-11T20:02:21.902Z,99.86
2023-02-11T20:04:48.725Z,99.54
2023-02-11T20:07:15.718Z,99.64
2023-02-11T20:09:42.593Z,99.79
2023-02-11T20:12:09.706Z,99.53
2023-02-11T20:14:36.474Z,99.19
2023-02-11T20:17:03.229Z,99.22
2023-02-11T20:19:30.710Z,99.24
2023-02-11T20:21:57.540Z,99.44
2023-02-11T20:24:24.985Z,99.55
2023-02-11T20:26:55.273Z,99.51
2023-02-11T20:29:22.899Z,99.67
2023-02-11T20:31:50.244Z,99.54
2023-02-11T20:34:17.972Z,99.54
2023-02-11T20:36:51.486Z,99.82
2023-02-11T20:39:21.579Z,99.73
2023-02-11T20:41:48.920Z,99.42
2023-02-11T20:44:15.591Z,99.83
2023-02-11T20:46:46.317Z,99.79
2023-02-11T20:49:15.649Z,99.99
2023-02-11T20:51:42.766Z,99.89
2023-02-11T20:54:18.142Z,99.99
2023-02-11T20:56:47.949Z,99.61
2023-02-11T20:59:16.766Z,99.63
2023-02-11T21:01:47.961Z,99.72
2023-02-11T21:04:20.170Z,99.70
2023-02-11T21:06:49.467Z,99.81
2023-02-11T21:09:21.728Z,99.78
2023-02-11T21:11:49.807Z,99.97
2023-02-11T21:14:17.836Z,99.81
2023-02-11T21:16:45.261Z,99.99
2023-02-11T21:19:12.082Z,99.99
2023-02-11T21:21:39.200Z,99.77
2023-02-11T21:24:06.750Z,99.99
2023-02-11T21:26:35.373Z,99.97
2023-02-11T21:29:03.895Z,99.99
2023-02-11T21:31:32.291Z,99.99
2023-02-11T21:34:02.165Z,99.97
2023-02-11T21:36:29.875Z,99.90
2023-02-11T21:38:56.459Z,99.80
2023-02-11T21:41:23.099Z,99.82
2023-02-11T21:43:50.598Z,99.88
2023-02-11T21:46:17.953Z,99.80
2023-02-11T21:48:44.722Z,99.98
2023-02-11T21:51:15.213Z,99.41
2023-02-11T21:53:42.100Z,99.79
2023-02-11T21:56:10.362Z,99.54
2023-02-11T21:58:37.248Z,99.58
2023-02-11T22:01:14.999Z,99.89
2023-02-11T22:03:42.710Z,99.69
2023-02-11T22:06:15.731Z,99.65
2023-02-11T22:08:42.328Z,99.37
2023-02-11T22:11:12.138Z,99.13
2023-02-11T22:13:39.535Z,99.21
2023-02-11T22:16:08.984Z,98.98
2023-02-11T22:18:36.104Z,99.04
2023-02-11T22:21:06.198Z,98.93
2023-02-11T22:23:33.267Z,99.05
2023-02-11T22:26:04.784Z,99.08
2023-02-11T22:28:31.515Z,98.95
2023-02-11T22:30:58.736Z,99.23
2023-02-11T22:33:26.946Z,99.69
2023-02-11T22:36:01.734Z,99.47
2023-02-11T22:38:29.325Z,99.38
2023-02-11T22:40:55.969Z,99.47
2023-02-11T22:43:22.849Z,99.36
2023-02-11T22:45:50.448Z,99.62
2023-02-11T22:48:17.499Z,99.45
2023-02-11T22:50:44.501Z,99.39
2023-02-11T22:53:11.114Z,99.96
2023-02-11T22:55:39.128Z,99.80
2023-02-11T22:58:06.216Z,99.87
2023-02-11T23:00:37.886Z,99.95
2023-02-11T23:03:05.690Z,99.92
2023-02-11T23:05:38.950Z,99.79
2023-02-11T23:08:06.025Z,99.72
2023-02-11T23:10:35.021Z,99.33
2023-02-11T23:13:02.949Z,99.51
2023-02-11T23:15:29.940Z,99.54
2023-02-11T23:17:57.047Z,99.39
2023-02-11T23:20:23.622Z,99.33
2023-02-11T23:22:50.219Z,99.52
2023-02-11T23:25:16.860Z,99.60
2023-02-11T23:27:43.381Z,99.56
2023-02-11T23:30:10.649Z,99.71
2023-02-11T23:32:40.800Z,99.71
2023-02-11T23:35:07.596Z,99.68
2023-02-11T23:37:34.204Z,99.79
2023-02-11T23:40:00.789Z,99.88
2023-02-11T23:42:27.388Z,99.87
2023-02-11T23:44:54.011Z,99.83
2023-02-11T23:47:20.822Z,99.80
2023-02-11T23:49:47.453Z,99.82
2023-02-11T23:52:14.203Z,99.85
2023-02-11T23:54:40.942Z,99.99
2023-02-11T23:57:07.659Z,99.98
2023-02-11T23:59:34.254Z,99.99
